Terminal Aerodrome Forecast
Issued by NWS

Home | Current Version | Previous Version | Text Only | Print | Product List | Glossary On
Versions: 1 2 3 4 5 6 7 8 9 10 11 12 13 14 15 16 17 18 19 20 21 22 23 24 25
000
FTUS43 KGRB 310500
TAFAUW
TAF
KAUW 310536Z 3106/0106 VRB02KT P6SM OVC015
      TEMPO 3108/3112 2SM BR BKN008
     FM311300 13005KT 5SM BR BKN012
     FM311600 15007KT P6SM SCT020
     FM010100 14005KT P6SM SCT025 BKN100=

USA.gov is the U.S. government's official web portal to all federal, state and local government web resources and services.